Station Historical Data
Daily Summary for May 11, 2011 Units:  English    Metric   Both
« Previous Day
Next Day »
Daily Weekly Monthly Yearly Custom
  High: Low: Average:
Temperature: 87.6 °F 64.9 °F 76.6 °F
Dew Point: 71.0 °F 63.2 °F 66.9 °F
Humidity: 96% 47% 74%
Wind Speed: 10.0mph 0.0mph 2.6mph
Wind Gust: 15.0mph - -
Wind- - SSE
Pressure: 29.96 in 29.83 in -
Precipitation: 0.00 in    
Historical Graphs
 
 
Tabular Data for May 11, 2011
Time Temperature Dew Point Pressure Wind Wind Speed Wind Gust Humidity Rainfall Rate (Hourly) Conditions
00:00 72.7 °F 66.9 °F 29.84 in SSE 4.0 mph 4.0 mph 82% 0.00 in
00:01 72.7 °F 66.9 °F 29.84 in South 2.0 mph 4.0 mph 82% 0.00 in
00:02 72.7 °F 66.9 °F 29.84 in SSW 2.0 mph 4.0 mph 82% 0.00 in
00:03 72.7 °F 66.9 °F 29.84 in South 2.0 mph 4.0 mph 82% 0.00 in
00:08 72.6 °F 66.8 °F 29.84 in SSW 1.0 mph 2.0 mph 82% 0.00 in
00:13 72.4 °F 66.6 °F 29.84 in SSW 1.0 mph 3.0 mph 82% 0.00 in
00:21 72.5 °F 66.7 °F 29.84 in South 3.0 mph 3.0 mph 82% 0.00 in
00:29 72.3 °F 66.5 °F 29.84 in SSW 1.0 mph 3.0 mph 82% 0.00 in
00:30 72.2 °F 66.4 °F 29.84 in SSW 1.0 mph 3.0 mph 82% 0.00 in
00:34 71.9 °F 66.5 °F 29.85 in South 1.0 mph 2.0 mph 83% 0.00 in
00:36 71.8 °F 66.4 °F 29.85 in Calm   1.0 mph 83% 0.00 in
00:41 71.8 °F 66.4 °F 29.85 in SW 1.0 mph 3.0 mph 83% 0.00 in
00:48 71.6 °F 66.2 °F 29.85 in SSW 1.0 mph 2.0 mph 83% 0.00 in
00:53 71.4 °F 66.3 °F 29.84 in SSW 2.0 mph 4.0 mph 84% 0.00 in
00:54 71.4 °F 66.3 °F 29.84 in SSW 2.0 mph 4.0 mph 84% 0.00 in
00:56 71.2 °F 66.1 °F 29.84 in SSW 1.0 mph 4.0 mph 84% 0.00 in
01:01 71.1 °F 66.4 °F 29.85 in South 2.0 mph 4.0 mph 85% 0.00 in
01:09 71.5 °F 66.4 °F 29.84 in SW 3.0 mph 4.0 mph 84% 0.00 in
01:14 71.6 °F 66.5 °F 29.84 in South 3.0 mph 4.0 mph 84% 0.00 in
01:19 71.7 °F 66.6 °F 29.84 in South 3.0 mph 4.0 mph 84% 0.00 in
01:24 71.9 °F 66.5 °F 29.84 in South 3.0 mph 5.0 mph 83% 0.00 in
01:29 71.8 °F 66.4 °F 29.85 in SW 2.0 mph 2.0 mph 83% 0.00 in
01:30 71.8 °F 66.4 °F 29.85 in SW 1.0 mph 2.0 mph 83% 0.00 in
01:31 71.7 °F 66.3 °F 29.85 in SSW 1.0 mph 2.0 mph 83% 0.00 in
01:36 71.5 °F 66.1 °F 29.84 in South 2.0 mph 3.0 mph 83% 0.00 in
01:41 71.3 °F 66.2 °F 29.84 in SSW 2.0 mph 3.0 mph 84% 0.00 in
01:46 70.9 °F 66.2 °F 29.84 in SSW 2.0 mph 2.0 mph 85% 0.00 in
01:51 70.7 °F 66.0 °F 29.84 in South 2.0 mph 2.0 mph 85% 0.00 in
01:52 70.7 °F 66.0 °F 29.84 in SSE 1.0 mph 3.0 mph 85% 0.00 in
01:57 70.8 °F 66.4 °F 29.84 in South 1.0 mph 3.0 mph 86% 0.00 in
01:58 70.7 °F 66.3 °F 29.84 in South 1.0 mph 3.0 mph 86% 0.00 in
02:07 70.7 °F 66.0 °F 29.84 in South 2.0 mph 3.0 mph 85% 0.00 in
02:12 70.6 °F 65.9 °F 29.84 in SSW 2.0 mph 2.0 mph 85% 0.00 in
02:17 70.5 °F 66.1 °F 29.84 in SSW 1.0 mph 2.0 mph 86% 0.00 in
02:22 70.3 °F 65.9 °F 29.83 in South 1.0 mph 2.0 mph 86% 0.00 in
02:27 70.2 °F 65.8 °F 29.83 in SSE 2.0 mph 3.0 mph 86% 0.00 in
02:28 70.2 °F 65.8 °F 29.83 in SSE 2.0 mph 3.0 mph 86% 0.00 in
02:33 70.1 °F 65.7 °F 29.83 in South 2.0 mph 4.0 mph 86% 0.00 in
02:38 70.1 °F 65.7 °F 29.83 in SSE 1.0 mph 3.0 mph 86% 0.00 in
02:43 69.9 °F 65.9 °F 29.83 in SW 1.0 mph 2.0 mph 87% 0.00 in
02:48 69.6 °F 65.6 °F 29.83 in SSW 2.0 mph 2.0 mph 87% 0.00 in
02:53 69.5 °F 65.8 °F 29.83 in SSW 1.0 mph 1.0 mph 88% 0.00 in
02:54 69.4 °F 65.7 °F 29.83 in Calm   1.0 mph 88% 0.00 in
02:58 69.3 °F 65.6 °F 29.83 in SW 1.0 mph 1.0 mph 88% 0.00 in
02:59 69.2 °F 65.5 °F 29.83 in Calm   1.0 mph 88% 0.00 in
03:04 68.9 °F 65.5 °F 29.83 in WSW 1.0 mph 2.0 mph 89% 0.00 in
03:09 68.7 °F 65.7 °F 29.83 in WSW 1.0 mph 1.0 mph 90% 0.00 in
03:14 68.5 °F 65.8 °F 29.83 in Calm   1.0 mph 91% 0.00 in
03:16 68.3 °F 65.6 °F 29.84 in Calm     91% 0.00 in
03:21 67.9 °F 65.2 °F 29.84 in Calm     91% 0.00 in
03:27 67.6 °F 65.2 °F 29.84 in Calm     92% 0.00 in
03:33 67.3 °F 65.2 °F 29.84 in Calm     93% 0.00 in
03:34 67.2 °F 65.1 °F 29.84 in Calm     93% 0.00 in
03:38 67.1 °F 65.0 °F 29.84 in Calm     93% 0.00 in
03:43 66.8 °F 65.0 °F 29.85 in Calm     94% 0.00 in
03:48 66.5 °F 64.7 °F 29.85 in Calm     94% 0.00 in
03:53 66.3 °F 64.8 °F 29.85 in SW 1.0 mph 1.0 mph 95% 0.00 in
03:54 66.3 °F 64.8 °F 29.85 in Calm   1.0 mph 95% 0.00 in
03:58 66.1 °F 64.6 °F 29.85 in Calm   1.0 mph 95% 0.00 in
04:03 65.9 °F 64.7 °F 29.85 in South 1.0 mph 1.0 mph 96% 0.00 in
04:08 66.0 °F 64.8 °F 29.86 in Calm     96% 0.00 in
04:13 65.9 °F 64.7 °F 29.86 in Calm     96% 0.00 in
04:18 65.9 °F 64.7 °F 29.86 in Calm     96% 0.00 in
04:23 65.8 °F 64.6 °F 29.86 in Calm     96% 0.00 in
04:28 65.8 °F 64.6 °F 29.86 in Calm     96% 0.00 in
04:29 65.8 °F 64.6 °F 29.86 in Calm     96% 0.00 in
04:34 65.8 °F 64.6 °F 29.86 in Calm     96% 0.00 in
04:36 65.8 °F 64.6 °F 29.87 in Calm     96% 0.00 in
04:41 65.9 °F 64.7 °F 29.87 in Calm   1.0 mph 96% 0.00 in
04:44 65.9 °F 64.7 °F 29.87 in Calm     96% 0.00 in
04:49 66.0 °F 64.8 °F 29.87 in Calm   1.0 mph 96% 0.00 in
04:54 66.2 °F 64.7 °F 29.86 in SW 1.0 mph 2.0 mph 95% 0.00 in
04:55 66.2 °F 64.7 °F 29.86 in SW 1.0 mph 2.0 mph 95% 0.00 in
04:56 66.2 °F 64.7 °F 29.86 in SW 1.0 mph 1.0 mph 95% 0.00 in
05:00 66.3 °F 64.8 °F 29.86 in Calm   1.0 mph 95% 0.00 in
05:05 66.2 °F 64.7 °F 29.86 in Calm   1.0 mph 95% 0.00 in
05:10 66.1 °F 64.6 °F 29.86 in Calm   1.0 mph 95% 0.00 in
05:15 66.0 °F 64.8 °F 29.86 in WSW 1.0 mph 1.0 mph 96% 0.00 in
05:20 66.0 °F 64.8 °F 29.87 in Calm     96% 0.00 in
05:25 66.0 °F 64.8 °F 29.87 in Calm   1.0 mph 96% 0.00 in
05:26 66.0 °F 64.8 °F 29.87 in Calm   1.0 mph 96% 0.00 in
05:31 66.1 °F 64.9 °F 29.87 in Calm   1.0 mph 96% 0.00 in
05:32 66.1 °F 64.9 °F 29.87 in Calm     96% 0.00 in
05:34 66.1 °F 64.9 °F 29.88 in Calm     96% 0.00 in
05:38 66.2 °F 65.0 °F 29.88 in WSW 1.0 mph 1.0 mph 96% 0.00 in
05:43 66.3 °F 64.8 °F 29.88 in North 1.0 mph 2.0 mph 95% 0.00 in
05:48 66.4 °F 64.9 °F 29.88 in NNE 2.0 mph 2.0 mph 95% 0.00 in
05:53 66.0 °F 64.5 °F 29.88 in NNE 2.0 mph 3.0 mph 95% 0.00 in
05:56 66.0 °F 64.5 °F 29.88 in NNE 2.0 mph 3.0 mph 95% 0.00 in
05:59 65.8 °F 64.3 °F 29.88 in NNE 1.0 mph 2.0 mph 95% 0.00 in
06:04 65.6 °F 64.1 °F 29.89 in NNE 1.0 mph 1.0 mph 95% 0.00 in
06:09 65.4 °F 63.9 °F 29.89 in Calm     95% 0.00 in
06:14 65.0 °F 63.2 °F 29.90 in Calm   1.0 mph 94% 0.00 in
06:19 64.9 °F 63.7 °F 29.90 in Calm   1.0 mph 96% 0.00 in
06:24 64.9 °F 63.7 °F 29.90 in NE 1.0 mph 1.0 mph 96% 0.00 in
06:29 64.9 °F 63.7 °F 29.91 in NE 1.0 mph 1.0 mph 96% 0.00 in
06:30 64.9 °F 63.7 °F 29.91 in NE 1.0 mph 1.0 mph 96% 0.00 in
06:35 65.0 °F 63.8 °F 29.91 in ENE 1.0 mph 2.0 mph 96% 0.00 in
06:36 65.0 °F 63.8 °F 29.91 in ENE 1.0 mph 2.0 mph 96% 0.00 in
06:41 65.2 °F 64.0 °F 29.92 in East 1.0 mph 2.0 mph 96% 0.00 in
06:42 65.2 °F 64.0 °F 29.92 in Calm   2.0 mph 96% 0.00 in
06:47 65.0 °F 63.8 °F 29.92 in NE 2.0 mph 2.0 mph 96% 0.00 in
06:52 65.0 °F 63.5 °F 29.92 in ENE 2.0 mph 2.0 mph 95% 0.00 in
06:54 65.0 °F 63.8 °F 29.92 in East 1.0 mph 2.0 mph 96% 0.00 in
06:57 65.0 °F 63.8 °F 29.92 in East 2.0 mph 3.0 mph 96% 0.00 in
06:59 65.0 °F 63.8 °F 29.92 in ENE 3.0 mph 3.0 mph 96% 0.00 in
07:03 65.1 °F 63.9 °F 29.92 in ENE 1.0 mph 2.0 mph 96% 0.00 in
07:08 65.2 °F 63.7 °F 29.93 in East 1.0 mph 2.0 mph 95% 0.00 in
07:09 65.2 °F 63.7 °F 29.93 in East 1.0 mph 1.0 mph 95% 0.00 in
07:14 65.1 °F 63.6 °F 29.93 in Calm   2.0 mph 95% 0.00 in
07:19 65.0 °F 63.5 °F 29.93 in ENE 1.0 mph 1.0 mph 95% 0.00 in
07:24 65.2 °F 64.0 °F 29.93 in ENE 1.0 mph 3.0 mph 96% 0.00 in
07:29 65.5 °F 64.0 °F 29.93 in East 4.0 mph 4.0 mph 95% 0.00 in
07:34 65.9 °F 64.4 °F 29.93 in NE 2.0 mph 3.0 mph 95% 0.00 in
07:35 66.0 °F 64.5 °F 29.93 in ENE 2.0 mph 3.0 mph 95% 0.00 in
07:36 66.1 °F 64.6 °F 29.93 in ENE 2.0 mph 3.0 mph 95% 0.00 in
07:39 66.4 °F 64.6 °F 29.94 in NE 2.0 mph 3.0 mph 94% 0.00 in
07:44 66.8 °F 64.7 °F 29.94 in ENE 2.0 mph 2.0 mph 93% 0.00 in
07:45 66.8 °F 64.7 °F 29.94 in ENE 1.0 mph 2.0 mph 93% 0.00 in
07:50 67.3 °F 65.2 °F 29.94 in ESE 1.0 mph 3.0 mph 93% 0.00 in
07:51 67.3 °F 65.2 °F 29.94 in East 2.0 mph 3.0 mph 93% 0.00 in
07:55 67.7 °F 65.6 °F 29.94 in Calm   2.0 mph 93% 0.00 in
07:56 67.7 °F 65.6 °F 29.94 in Calm   1.0 mph 93% 0.00 in
07:58 68.0 °F 65.6 °F 29.94 in Calm   1.0 mph 92% 0.00 in
08:01 68.4 °F 66.0 °F 29.94 in East 1.0 mph 1.0 mph 92% 0.00 in
08:06 69.0 °F 66.3 °F 29.94 in Calm   1.0 mph 91% 0.00 in
08:08 69.3 °F 66.6 °F 29.94 in Calm   1.0 mph 91% 0.00 in
08:13 70.0 °F 66.9 °F 29.94 in ESE 1.0 mph 1.0 mph 90% 0.00 in
08:18 70.1 °F 66.4 °F 29.94 in ESE 3.0 mph 5.0 mph 88% 0.00 in
08:23 69.7 °F 66.3 °F 29.94 in ESE 3.0 mph 4.0 mph 89% 0.00 in
08:28 69.4 °F 66.7 °F 29.94 in ESE 2.0 mph 4.0 mph 91% 0.00 in
08:31 69.4 °F 66.3 °F 29.94 in ESE 3.0 mph 5.0 mph 90% 0.00 in
08:33 69.5 °F 66.4 °F 29.94 in ESE 3.0 mph 5.0 mph 90% 0.00 in
08:37 69.6 °F 66.5 °F 29.94 in SE 4.0 mph 4.0 mph 90% 0.00 in
08:42 69.8 °F 66.4 °F 29.94 in ESE 3.0 mph 5.0 mph 89% 0.00 in
08:47 70.3 °F 66.9 °F 29.94 in ESE 3.0 mph 4.0 mph 89% 0.00 in
08:52 70.7 °F 67.0 °F 29.94 in East 3.0 mph 5.0 mph 88% 0.00 in
08:53 70.7 °F 67.0 °F 29.94 in SE 4.0 mph 5.0 mph 88% 0.00 in
08:57 71.1 °F 67.4 °F 29.94 in ESE 3.0 mph 5.0 mph 88% 0.00 in
08:58 71.3 °F 67.6 °F 29.95 in SE 3.0 mph 5.0 mph 88% 0.00 in
09:03 71.7 °F 67.6 °F 29.95 in SE 4.0 mph 6.0 mph 87% 0.00 in
09:04 71.7 °F 67.3 °F 29.95 in SE 4.0 mph 6.0 mph 86% 0.00 in
09:09 72.1 °F 67.7 °F 29.95 in East 4.0 mph 5.0 mph 86% 0.00 in
09:14 72.0 °F 67.2 °F 29.95 in East 4.0 mph 6.0 mph 85% 0.00 in
09:15 72.1 °F 67.7 °F 29.95 in ESE 4.0 mph 5.0 mph 86% 0.00 in
09:20 72.4 °F 68.3 °F 29.95 in SE 3.0 mph 6.0 mph 87% 0.00 in
09:25 72.8 °F 68.0 °F 29.95 in SE 4.0 mph 5.0 mph 85% 0.00 in
09:26 72.8 °F 68.0 °F 29.95 in SSE 4.0 mph 6.0 mph 85% 0.00 in
09:31 72.9 °F 67.8 °F 29.95 in ESE 4.0 mph 6.0 mph 84% 0.00 in
09:32 73.0 °F 68.2 °F 29.95 in East 3.0 mph 6.0 mph 85% 0.00 in
09:36 73.3 °F 68.2 °F 29.95 in ESE 6.0 mph 6.0 mph 84% 0.00 in
09:41 73.4 °F 67.6 °F 29.96 in ESE 4.0 mph 7.0 mph 82% 0.00 in
09:46 73.8 °F 68.3 °F 29.96 in SE 5.0 mph 5.0 mph 83% 0.00 in
09:51 74.6 °F 68.8 °F 29.96 in SSE 6.0 mph 7.0 mph 82% 0.00 in
09:52 74.7 °F 69.2 °F 29.96 in SSW 3.0 mph 7.0 mph 83% 0.00 in
09:57 75.3 °F 69.8 °F 29.95 in South 3.0 mph 6.0 mph 83% 0.00 in
10:02 75.8 °F 69.6 °F 29.95 in SE 4.0 mph 6.0 mph 81% 0.00 in
10:07 76.1 °F 69.8 °F 29.95 in SE 4.0 mph 6.0 mph 81% 0.00 in
10:12 76.4 °F 69.8 °F 29.95 in South 6.0 mph 6.0 mph 80% 0.00 in
10:17 76.8 °F 69.8 °F 29.95 in SSE 3.0 mph 5.0 mph 79% 0.00 in
10:22 77.0 °F 70.0 °F 29.95 in SSE 4.0 mph 6.0 mph 79% 0.00 in
10:27 77.5 °F 69.3 °F 29.95 in SSE 6.0 mph 6.0 mph 76% 0.00 in
10:28 77.5 °F 69.7 °F 29.95 in SE 3.0 mph 6.0 mph 77% 0.00 in
10:29 77.5 °F 69.7 °F 29.95 in SE 5.0 mph 6.0 mph 77% 0.00 in
10:34 77.7 °F 70.3 °F 29.96 in SE 5.0 mph 7.0 mph 78% 0.00 in
10:36 77.9 °F 69.7 °F 29.96 in South 3.0 mph 7.0 mph 76% 0.00 in
10:39 78.1 °F 70.3 °F 29.96 in South 3.0 mph 5.0 mph 77% 0.00 in
10:44 78.5 °F 70.7 °F 29.96 in SSW 5.0 mph 5.0 mph 77% 0.00 in
10:49 78.7 °F 70.1 °F 29.96 in SW 4.0 mph 6.0 mph 75% 0.00 in
10:54 79.1 °F 70.1 °F 29.96 in South 4.0 mph 6.0 mph 74% 0.00 in
10:55 79.1 °F 70.1 °F 29.96 in SSW 5.0 mph 6.0 mph 74% 0.00 in
10:59 79.2 °F 69.4 °F 29.96 in SSW 4.0 mph 7.0 mph 72% 0.00 in
11:00 79.2 °F 69.4 °F 29.96 in WSW 4.0 mph 7.0 mph 72% 0.00 in
11:05 79.4 °F 69.6 °F 29.95 in SSE 5.0 mph 6.0 mph 72% 0.00 in
11:07 79.5 °F 70.1 °F 29.95 in SE 6.0 mph 6.0 mph 73% 0.00 in
11:11 79.7 °F 70.3 °F 29.95 in SSW 4.0 mph 6.0 mph 73% 0.00 in
11:16 79.9 °F 70.9 °F 29.95 in SE 7.0 mph 7.0 mph 74% 0.00 in
11:21 80.2 °F 70.8 °F 29.95 in SSE 3.0 mph 8.0 mph 73% 0.00 in
11:26 80.3 °F 68.8 °F 29.95 in SE 2.0 mph 6.0 mph 68% 0.00 in
11:27 80.4 °F 68.9 °F 29.95 in SSW 2.0 mph 6.0 mph 68% 0.00 in
11:28 80.5 °F 69.0 °F 29.95 in SW 4.0 mph 6.0 mph 68% 0.00 in
11:31 80.6 °F 70.8 °F 29.95 in SSW 2.0 mph 7.0 mph 72% 0.00 in
11:33 80.7 °F 70.4 °F 29.95 in South 4.0 mph 7.0 mph 71% 0.00 in
11:36 80.9 °F 70.6 °F 29.95 in WSW 3.0 mph 6.0 mph 71% 0.00 in
11:37 80.9 °F 71.0 °F 29.95 in SSE 2.0 mph 6.0 mph 72% 0.00 in
11:42 81.3 °F 69.7 °F 29.95 in SSE 6.0 mph 7.0 mph 68% 0.00 in
11:47 81.4 °F 69.8 °F 29.95 in ESE 6.0 mph 7.0 mph 68% 0.00 in
11:52 81.2 °F 69.6 °F 29.95 in SE 2.0 mph 6.0 mph 68% 0.00 in
11:57 81.3 °F 70.2 °F 29.95 in SSE 6.0 mph 9.0 mph 69% 0.00 in
11:58 81.4 °F 70.3 °F 29.95 in SSE 6.0 mph 9.0 mph 69% 0.00 in
12:02 81.6 °F 69.6 °F 29.95 in SSE 3.0 mph 8.0 mph 67% 0.00 in
12:07 81.9 °F 69.4 °F 29.94 in South 5.0 mph 8.0 mph 66% 0.00 in
12:10 82.0 °F 70.0 °F 29.94 in SSE 4.0 mph 10.0 mph 67% 0.00 in
12:12 81.8 °F 69.3 °F 29.94 in SE 4.0 mph 8.0 mph 66% 0.00 in
12:17 82.2 °F 68.8 °F 29.94 in SSE 5.0 mph 7.0 mph 64% 0.00 in
12:18 82.2 °F 68.8 °F 29.94 in SSE 5.0 mph 7.0 mph 64% 0.00 in
12:23 82.4 °F 69.0 °F 29.95 in ESE 7.0 mph 8.0 mph 64% 0.00 in
12:28 81.6 °F 68.2 °F 29.94 in SE 6.0 mph 8.0 mph 64% 0.00 in
12:29 81.7 °F 68.8 °F 29.95 in SSE 4.0 mph 8.0 mph 65% 0.00 in
12:34 82.1 °F 68.7 °F 29.94 in SSE 4.0 mph 7.0 mph 64% 0.00 in
12:35 82.2 °F 69.3 °F 29.94 in SE 5.0 mph 6.0 mph 65% 0.00 in
12:36 82.4 °F 70.3 °F 29.94 in SSE 5.0 mph 6.0 mph 67% 0.00 in
12:41 83.2 °F 68.4 °F 29.94 in South 5.0 mph 7.0 mph 61% 0.00 in
12:46 83.1 °F 67.8 °F 29.94 in SE 6.0 mph 10.0 mph 60% 0.00 in
12:51 83.0 °F 68.7 °F 29.94 in SSE 6.0 mph 7.0 mph 62% 0.00 in
12:52 83.1 °F 70.6 °F 29.94 in SE 9.0 mph 11.0 mph 66% 0.00 in
12:53 83.0 °F 68.7 °F 29.94 in SE 5.0 mph 11.0 mph 62% 0.00 in
12:57 82.8 °F 68.5 °F 29.94 in SE 4.0 mph 10.0 mph 62% 0.00 in
12:58 82.9 °F 69.0 °F 29.94 in SE 4.0 mph 7.0 mph 63% 0.00 in
13:03 83.2 °F 69.3 °F 29.94 in SE 6.0 mph 8.0 mph 63% 0.00 in
13:08 82.5 °F 67.7 °F 29.93 in ESE 8.0 mph 12.0 mph 61% 0.00 in
13:13 82.6 °F 68.7 °F 29.94 in SE 5.0 mph 9.0 mph 63% 0.00 in
13:18 82.5 °F 68.2 °F 29.94 in ESE 5.0 mph 7.0 mph 62% 0.00 in
13:23 83.4 °F 69.5 °F 29.94 in SSW 5.0 mph 7.0 mph 63% 0.00 in
13:29 83.7 °F 68.3 °F 29.93 in SE 4.0 mph 7.0 mph 60% 0.00 in
13:34 83.2 °F 67.4 °F 29.93 in SSW 4.0 mph 9.0 mph 59% 0.00 in
13:35 83.3 °F 68.9 °F 29.93 in SE 6.0 mph 9.0 mph 62% 0.00 in
13:40 83.9 °F 68.1 °F 29.93 in South 7.0 mph 9.0 mph 59% 0.00 in
13:45 83.7 °F 67.9 °F 29.93 in SSW 6.0 mph 9.0 mph 59% 0.00 in
13:50 84.0 °F 68.1 °F 29.93 in SE 8.0 mph 9.0 mph 59% 0.00 in
13:51 84.1 °F 66.7 °F 29.93 in SSE 10.0 mph 15.0 mph 56% 0.00 in
13:55 84.2 °F 67.8 °F 29.93 in SE 5.0 mph 7.0 mph 58% 0.00 in
13:58 84.5 °F 68.1 °F 29.93 in South 4.0 mph 8.0 mph 58% 0.00 in
14:01 84.4 °F 67.0 °F 29.93 in SSW 3.0 mph 12.0 mph 56% 0.00 in
14:03 84.5 °F 68.6 °F 29.93 in SW 3.0 mph 7.0 mph 59% 0.00 in
14:06 84.7 °F 66.2 °F 29.93 in SSW 6.0 mph 11.0 mph 54% 0.00 in
14:08 84.8 °F 66.8 °F 29.93 in SSW 6.0 mph 10.0 mph 55% 0.00 in
14:12 84.8 °F 67.4 °F 29.92 in SW 10.0 mph 10.0 mph 56% 0.00 in
14:17 84.3 °F 65.3 °F 29.92 in SSW 3.0 mph 12.0 mph 53% 0.00 in
14:22 84.6 °F 67.2 °F 29.92 in SSW 6.0 mph 10.0 mph 56% 0.00 in
14:27 84.9 °F 65.9 °F 29.92 in South 3.0 mph 10.0 mph 53% 0.00 in
14:32 84.9 °F 67.5 °F 29.92 in WSW 6.0 mph 10.0 mph 56% 0.00 in
14:33 84.9 °F 66.9 °F 29.92 in SW 5.0 mph 10.0 mph 55% 0.00 in
14:37 85.1 °F 66.1 °F 29.92 in South 5.0 mph 12.0 mph 53% 0.00 in
14:42 85.1 °F 66.1 °F 29.92 in SW 10.0 mph 10.0 mph 53% 0.00 in
14:47 85.3 °F 66.2 °F 29.92 in SW 2.0 mph 10.0 mph 53% 0.00 in
14:52 85.4 °F 67.9 °F 29.92 in SSW 5.0 mph 9.0 mph 56% 0.00 in
14:53 85.4 °F 67.4 °F 29.92 in West 4.0 mph 9.0 mph 55% 0.00 in
14:57 85.3 °F 67.8 °F 29.91 in South 4.0 mph 7.0 mph 56% 0.00 in
14:59 85.5 °F 67.5 °F 29.91 in WSW 4.0 mph 6.0 mph 55% 0.00 in
15:02 85.7 °F 67.7 °F 29.91 in SSW 8.0 mph 12.0 mph 55% 0.00 in
15:07 85.7 °F 68.2 °F 29.91 in SSE 4.0 mph 10.0 mph 56% 0.00 in
15:12 85.9 °F 67.9 °F 29.91 in WSW 3.0 mph 5.0 mph 55% 0.00 in
15:17 85.7 °F 66.1 °F 29.91 in SW 5.0 mph 10.0 mph 52% 0.00 in
15:22 85.7 °F 67.2 °F 29.91 in South 4.0 mph 6.0 mph 54% 0.00 in
15:23 85.7 °F 67.2 °F 29.91 in SSE 5.0 mph 6.0 mph 54% 0.00 in
15:28 85.9 °F 68.9 °F 29.91 in SSE 10.0 mph 10.0 mph 57% 0.00 in
15:33 86.1 °F 65.9 °F 29.90 in South 10.0 mph 12.0 mph 51% 0.00 in
15:35 86.2 °F 67.1 °F 29.90 in SW 7.0 mph 12.0 mph 53% 0.00 in
15:39 86.2 °F 67.1 °F 29.91 in SW 6.0 mph 10.0 mph 53% 0.00 in
15:44 86.1 °F 65.9 °F 29.90 in SSW 7.0 mph 13.0 mph 51% 0.00 in
15:49 86.3 °F 66.1 °F 29.90 in SW 6.0 mph 8.0 mph 51% 0.00 in
15:54 86.6 °F 67.4 °F 29.90 in South 5.0 mph 10.0 mph 53% 0.00 in
15:55 86.8 °F 67.1 °F 29.90 in South 7.0 mph 8.0 mph 52% 0.00 in
15:58 86.8 °F 66.5 °F 29.90 in SW 6.0 mph 8.0 mph 51% 0.00 in
15:59 86.6 °F 65.8 °F 29.90 in SW 6.0 mph 8.0 mph 50% 0.00 in
16:04 86.6 °F 67.4 °F 29.89 in WSW 8.0 mph 8.0 mph 53% 0.00 in
16:10 86.8 °F 66.5 °F 29.89 in SSE 6.0 mph 10.0 mph 51% 0.00 in
16:15 86.8 °F 66.5 °F 29.89 in SW 7.0 mph 12.0 mph 51% 0.00 in
16:21 86.8 °F 67.1 °F 29.89 in West 5.0 mph 12.0 mph 52% 0.00 in
16:26 86.6 °F 68.0 °F 29.88 in SW 6.0 mph 10.0 mph 54% 0.00 in
16:28 86.6 °F 68.0 °F 29.89 in West 5.0 mph 10.0 mph 54% 0.00 in
16:29 86.6 °F 68.5 °F 29.89 in SSW 2.0 mph 8.0 mph 55% 0.00 in
16:34 87.0 °F 67.3 °F 29.88 in SSW 6.0 mph 8.0 mph 52% 0.00 in
16:35 87.0 °F 66.7 °F 29.88 in SSE 7.0 mph 8.0 mph 51% 0.00 in
16:39 86.9 °F 68.3 °F 29.88 in SE 4.0 mph 6.0 mph 54% 0.00 in
16:40 86.8 °F 67.1 °F 29.88 in SSE 3.0 mph 5.0 mph 52% 0.00 in
16:45 86.9 °F 67.2 °F 29.88 in SSE 6.0 mph 9.0 mph 52% 0.00 in
16:46 86.9 °F 66.6 °F 29.88 in SE 5.0 mph 9.0 mph 51% 0.00 in
16:51 86.7 °F 67.0 °F 29.88 in SSE 8.0 mph 10.0 mph 52% 0.00 in
16:52 86.7 °F 68.1 °F 29.87 in SE 4.0 mph 10.0 mph 54% 0.00 in
16:56 87.0 °F 67.3 °F 29.87 in SW 3.0 mph 6.0 mph 52% 0.00 in
16:57 87.0 °F 68.9 °F 29.87 in SSW 3.0 mph 6.0 mph 55% 0.00 in
17:01 87.2 °F 67.4 °F 29.87 in South 4.0 mph 7.0 mph 52% 0.00 in
17:02 87.2 °F 67.4 °F 29.87 in SSW 4.0 mph 7.0 mph 52% 0.00 in
17:07 87.3 °F 68.1 °F 29.87 in SSW 2.0 mph 6.0 mph 53% 0.00 in
17:12 87.4 °F 68.7 °F 29.88 in SSE 4.0 mph 7.0 mph 54% 0.00 in
17:17 87.5 °F 67.7 °F 29.87 in South 4.0 mph 7.0 mph 52% 0.00 in
17:22 87.4 °F 66.5 °F 29.87 in SSW 3.0 mph 6.0 mph 50% 0.00 in
17:27 87.1 °F 66.8 °F 29.87 in SSE 2.0 mph 7.0 mph 51% 0.00 in
17:32 87.4 °F 68.2 °F 29.87 in SSW 2.0 mph 3.0 mph 53% 0.00 in
17:33 87.5 °F 67.7 °F 29.87 in South 2.0 mph 4.0 mph 52% 0.00 in
17:34 87.6 °F 67.8 °F 29.87 in South 5.0 mph 6.0 mph 52% 0.00 in
17:39 87.6 °F 67.2 °F 29.87 in SW 5.0 mph 7.0 mph 51% 0.00 in
17:44 87.3 °F 66.4 °F 29.87 in SSE 7.0 mph 7.0 mph 50% 0.00 in
17:49 87.4 °F 65.9 °F 29.87 in South 3.0 mph 7.0 mph 49% 0.00 in
17:54 87.1 °F 66.2 °F 29.86 in SE 6.0 mph 8.0 mph 50% 0.00 in
17:55 87.0 °F 66.1 °F 29.87 in SE 6.0 mph 8.0 mph 50% 0.00 in
18:00 86.5 °F 66.2 °F 29.86 in SE 4.0 mph 6.0 mph 51% 0.00 in
18:05 86.6 °F 66.9 °F 29.86 in SSE 7.0 mph 9.0 mph 52% 0.00 in
18:10 86.6 °F 66.9 °F 29.86 in ESE 6.0 mph 7.0 mph 52% 0.00 in
18:15 86.7 °F 67.5 °F 29.86 in SW 3.0 mph 10.0 mph 53% 0.00 in
18:20 87.0 °F 67.3 °F 29.86 in SE 2.0 mph 5.0 mph 52% 0.00 in
18:21 87.0 °F 67.3 °F 29.86 in SE 3.0 mph 4.0 mph 52% 0.00 in
18:26 87.2 °F 67.4 °F 29.86 in SSE 2.0 mph 3.0 mph 52% 0.00 in
18:31 87.2 °F 65.7 °F 29.86 in SSE 4.0 mph 7.0 mph 49% 0.00 in
18:32 87.2 °F 64.5 °F 29.86 in SE 4.0 mph 7.0 mph 47% 0.00 in
18:33 87.1 °F 64.4 °F 29.86 in SSW 3.0 mph 7.0 mph 47% 0.00 in
18:37 87.1 °F 65.1 °F 29.86 in SSE 2.0 mph 6.0 mph 48% 0.00 in
18:38 87.1 °F 65.1 °F 29.85 in SSW 4.0 mph 6.0 mph 48% 0.00 in
18:42 87.1 °F 66.2 °F 29.86 in SSE 3.0 mph 5.0 mph 50% 0.00 in
18:47 87.2 °F 66.3 °F 29.85 in SE 1.0 mph 5.0 mph 50% 0.00 in
18:52 87.0 °F 66.1 °F 29.85 in SE 4.0 mph 5.0 mph 50% 0.00 in
18:53 87.0 °F 66.1 °F 29.85 in SSE 3.0 mph 5.0 mph 50% 0.00 in
18:58 86.8 °F 65.4 °F 29.85 in SW 4.0 mph 5.0 mph 49% 0.00 in
19:03 86.9 °F 67.2 °F 29.85 in South 3.0 mph 3.0 mph 52% 0.00 in
19:08 87.1 °F 66.2 °F 29.85 in SSE 4.0 mph 4.0 mph 50% 0.00 in
19:09 87.0 °F 66.7 °F 29.85 in SW 2.0 mph 4.0 mph 51% 0.00 in
19:13 86.7 °F 67.5 °F 29.85 in SSE 2.0 mph 3.0 mph 53% 0.00 in
19:18 86.2 °F 66.0 °F 29.84 in SSW 3.0 mph 4.0 mph 51% 0.00 in
19:23 85.6 °F 66.5 °F 29.84 in SSE 4.0 mph 4.0 mph 53% 0.00 in
19:24 85.6 °F 66.0 °F 29.84 in SSE 3.0 mph 4.0 mph 52% 0.00 in
19:25 85.5 °F 65.9 °F 29.84 in SSW 2.0 mph 4.0 mph 52% 0.00 in
19:31 84.9 °F 67.5 °F 29.84 in SSE 2.0 mph 4.0 mph 56% 0.00 in
19:33 84.7 °F 67.3 °F 29.84 in SSE 2.0 mph 4.0 mph 56% 0.00 in
19:36 84.2 °F 68.3 °F 29.84 in SE 2.0 mph 3.0 mph 59% 0.00 in
19:41 83.7 °F 67.4 °F 29.84 in SSE 1.0 mph 3.0 mph 58% 0.00 in
19:46 83.5 °F 67.7 °F 29.85 in SSE 1.0 mph 1.0 mph 59% 0.00 in
19:51 83.4 °F 67.6 °F 29.85 in Calm   2.0 mph 59% 0.00 in
19:52 83.4 °F 67.6 °F 29.85 in SSE 1.0 mph 2.0 mph 59% 0.00 in
19:57 83.5 °F 67.7 °F 29.85 in SSE 1.0 mph 1.0 mph 59% 0.00 in
19:58 83.6 °F 67.8 °F 29.85 in Calm   1.0 mph 59% 0.00 in
20:03 84.0 °F 67.7 °F 29.86 in SSE 1.0 mph 1.0 mph 58% 0.00 in
20:05 84.1 °F 67.7 °F 29.86 in Calm   1.0 mph 58% 0.00 in
20:09 84.1 °F 67.7 °F 29.86 in Calm   1.0 mph 58% 0.00 in
20:14 83.8 °F 68.9 °F 29.86 in Calm     61% 0.00 in
20:19 83.0 °F 67.7 °F 29.86 in SSE 1.0 mph 1.0 mph 60% 0.00 in
20:24 82.0 °F 67.7 °F 29.86 in SE 1.0 mph 1.0 mph 62% 0.00 in
20:29 81.3 °F 67.5 °F 29.86 in SSE 1.0 mph 2.0 mph 63% 0.00 in
20:30 81.2 °F 67.9 °F 29.86 in SE 2.0 mph 2.0 mph 64% 0.00 in
20:31 81.2 °F 67.9 °F 29.86 in SSE 1.0 mph 2.0 mph 64% 0.00 in
20:32 80.9 °F 67.6 °F 29.86 in Calm   2.0 mph 64% 0.00 in
20:36 80.3 °F 67.5 °F 29.86 in SSE 1.0 mph 1.0 mph 65% 0.00 in
20:38 80.1 °F 66.8 °F 29.86 in SSE 2.0 mph 2.0 mph 64% 0.00 in
20:43 80.0 °F 67.2 °F 29.86 in SSE 1.0 mph 2.0 mph 65% 0.00 in
20:48 79.7 °F 67.3 °F 29.86 in SE 1.0 mph 2.0 mph 66% 0.00 in
20:53 79.2 °F 67.3 °F 29.87 in SE 1.0 mph 1.0 mph 67% 0.00 in
20:54 79.1 °F 67.2 °F 29.87 in SE 1.0 mph 1.0 mph 67% 0.00 in
20:56 78.9 °F 67.4 °F 29.87 in Calm   1.0 mph 68% 0.00 in
20:58 78.8 °F 67.4 °F 29.87 in Calm     68% 0.00 in
21:03 78.1 °F 67.1 °F 29.88 in Calm     69% 0.00 in
21:08 77.4 °F 67.3 °F 29.88 in Calm   1.0 mph 71% 0.00 in
21:10 77.1 °F 67.4 °F 29.88 in Calm     72% 0.00 in
21:15 76.9 °F 67.2 °F 29.88 in SE 1.0 mph 1.0 mph 72% 0.00 in
21:16 76.9 °F 67.2 °F 29.88 in SE 1.0 mph 1.0 mph 72% 0.00 in
21:21 77.2 °F 67.1 °F 29.88 in SE 1.0 mph 1.0 mph 71% 0.00 in
21:26 77.1 °F 67.4 °F 29.88 in SE 1.0 mph 2.0 mph 72% 0.00 in
21:31 77.0 °F 67.3 °F 29.88 in Calm   1.0 mph 72% 0.00 in
21:37 76.9 °F 67.2 °F 29.89 in Calm   1.0 mph 72% 0.00 in
21:42 76.1 °F 67.2 °F 29.89 in Calm     74% 0.00 in
21:51 74.9 °F 66.8 °F 29.90 in Calm     76% 0.00 in
21:52 74.9 °F 66.8 °F 29.90 in Calm     76% 0.00 in
21:56 74.9 °F 67.2 °F 29.90 in SE 1.0 mph 1.0 mph 77% 0.00 in
21:57 75.0 °F 67.3 °F 29.90 in SE 1.0 mph 1.0 mph 77% 0.00 in
22:02 75.3 °F 66.8 °F 29.90 in SE 1.0 mph 1.0 mph 75% 0.00 in
22:07 75.8 °F 67.3 °F 29.89 in SE 1.0 mph 3.0 mph 75% 0.00 in
22:12 75.8 °F 67.3 °F 29.89 in SSE 1.0 mph 2.0 mph 75% 0.00 in
22:17 75.8 °F 66.9 °F 29.90 in SE 1.0 mph 1.0 mph 74% 0.00 in
22:22 76.0 °F 67.5 °F 29.90 in SE 1.0 mph 2.0 mph 75% 0.00 in
22:27 75.8 °F 67.3 °F 29.91 in South 2.0 mph 2.0 mph 75% 0.00 in
22:28 75.8 °F 67.3 °F 29.91 in South 1.0 mph 2.0 mph 75% 0.00 in
22:33 75.3 °F 67.2 °F 29.91 in Calm   1.0 mph 76% 0.00 in
22:36 74.7 °F 67.0 °F 29.91 in Calm   1.0 mph 77% 0.00 in
22:41 74.2 °F 66.9 °F 29.91 in Calm     78% 0.00 in
22:46 74.3 °F 67.0 °F 29.91 in Calm     78% 0.00 in
22:51 74.5 °F 67.2 °F 29.91 in Calm     78% 0.00 in
22:56 73.5 °F 66.6 °F 29.91 in South 1.0 mph 1.0 mph 79% 0.00 in
22:58 73.3 °F 66.8 °F 29.91 in Calm   1.0 mph 80% 0.00 in
23:03 72.7 °F 66.5 °F 29.91 in Calm     81% 0.00 in
23:08 72.4 °F 66.6 °F 29.91 in Calm     82% 0.00 in
23:13 72.3 °F 66.8 °F 29.91 in Calm     83% 0.00 in
23:18 72.4 °F 66.9 °F 29.91 in Calm     83% 0.00 in
23:23 72.2 °F 66.8 °F 29.91 in Calm     83% 0.00 in
23:29 72.1 °F 67.0 °F 29.91 in Calm     84% 0.00 in
23:34 71.7 °F 66.6 °F 29.91 in Calm     84% 0.00 in
23:35 71.6 °F 66.5 °F 29.91 in Calm     84% 0.00 in
23:39 71.6 °F 66.9 °F 29.91 in Calm     85% 0.00 in
23:44 72.0 °F 67.2 °F 29.91 in Calm     85% 0.00 in
23:49 72.4 °F 67.3 °F 29.91 in Calm     84% 0.00 in
23:55 72.6 °F 67.2 °F 29.91 in South 1.0 mph 1.0 mph 83% 0.00 in
23:56 72.6 °F 67.2 °F 29.91 in South 1.0 mph 1.0 mph 83% 0.00 in
Compliments of Weather Underground